Time;durP1;ratioP1;P1;durP2;ratioP2;P2;SDS_P1;SDS_P2;PMS_P1;PMS_P2;Temp;Humidity;BMP_temperature;BMP_pressure;BME280_temperature;BME280_humidity;BME280_pressure;Samples;Min_cycle;Max_cycle;Signal;HPM_P1;HPM_P2
2023/06/11 00:01:52;;;;;;;5.63;5.03;;;21.70;99.90;;;;;;4997123;28;20038;-80
2023/06/11 00:04:24;;;;;;;4.60;3.50;;;21.70;99.90;;;;;;5001574;28;20046;-79
2023/06/11 00:06:59;;;;;;;4.43;3.33;;;21.60;99.90;;;;;;5001993;28;20046;-80
2023/06/11 00:09:26;;;;;;;3.80;3.40;;;21.60;99.90;;;;;;4999982;28;20454;-79
2023/06/11 00:11:53;;;;;;;3.88;3.38;;;21.60;99.90;;;;;;5002327;28;20637;-80
2023/06/11 00:14:22;;;;;;;4.60;4.00;;;21.60;99.90;;;;;;5010201;28;20513;-80
2023/06/11 00:16:50;;;;;;;4.07;3.63;;;21.50;99.90;;;;;;5005616;28;20042;-80
2023/06/11 00:19:19;;;;;;;4.00;3.60;;;21.50;99.90;;;;;;5005038;28;20046;-80
2023/06/11 00:21:48;;;;;;;3.95;3.58;;;21.40;99.90;;;;;;5002890;28;20502;-79
2023/06/11 00:24:15;;;;;;;5.10;3.63;;;21.40;99.90;;;;;;5005395;28;20050;-81
2023/06/11 00:26:42;;;;;;;4.30;3.85;;;21.40;99.90;;;;;;5005099;28;20046;-79
2023/06/11 00:29:10;;;;;;;6.78;3.72;;;21.40;99.90;;;;;;4997694;28;20054;-80
2023/06/11 00:31:37;;;;;;;5.90;4.25;;;21.40;99.90;;;;;;4996432;28;20057;-79
2023/06/11 00:34:04;;;;;;;4.35;3.95;;;21.30;99.90;;;;;;5004574;28;20090;-80
2023/06/11 00:36:33;;;;;;;7.75;3.97;;;21.30;99.90;;;;;;5004502;28;20042;-80
2023/06/11 00:39:00;;;;;;;3.72;3.42;;;21.30;99.90;;;;;;5005079;28;20042;-80
2023/06/11 00:41:29;;;;;;;4.05;3.65;;;21.20;99.90;;;;;;5010163;28;20065;-79
2023/06/11 00:43:57;;;;;;;3.58;3.20;;;21.30;99.90;;;;;;5010540;28;20478;-80
2023/06/11 00:46:24;;;;;;;4.18;3.83;;;21.20;99.90;;;;;;5008520;28;20057;-80
2023/06/11 00:48:51;;;;;;;4.35;3.90;;;21.20;99.90;;;;;;5009026;28;20125;-80
2023/06/11 00:51:22;;;;;;;5.03;3.80;;;21.20;99.90;;;;;;5006655;28;20103;-80
2023/06/11 00:53:51;;;;;;;4.65;3.92;;;21.10;99.90;;;;;;5004454;28;20050;-80
2023/06/11 00:56:19;;;;;;;5.45;3.92;;;21.10;99.90;;;;;;5011046;28;20046;-80
2023/06/11 00:58:48;;;;;;;3.60;3.30;;;21.10;99.90;;;;;;5002489;28;20569;-80
2023/06/11 01:01:29;;;;;;;4.03;3.73;;;21.00;99.90;;;;;;5001680;28;20077;-80
2023/06/11 01:03:56;;;;;;;5.32;3.80;;;21.00;99.90;;;;;;5007672;28;20068;-80
2023/06/11 01:06:28;;;;;;;6.75;4.05;;;21.00;99.90;;;;;;5007070;28;20050;-80
2023/06/11 01:08:58;;;;;;;5.10;3.60;;;21.00;99.90;;;;;;5006850;28;20499;-80
2023/06/11 01:11:27;;;;;;;3.67;3.17;;;21.00;99.90;;;;;;5009254;28;20057;-80
2023/06/11 01:13:54;;;;;;;4.25;3.85;;;20.90;99.90;;;;;;5009532;28;20292;-80
2023/06/11 01:16:44;;;;;;;3.92;3.35;;;20.90;99.90;;;;;;5010482;28;20077;-80
2023/06/11 01:20:12;;;;;;;4.70;3.60;;;20.80;99.90;;;;;;5008646;28;20046;-80
2023/06/11 01:23:16;;;;;;;5.80;3.60;;;20.80;99.90;;;;;;4958847;29;20055;-80
2023/06/11 01:26:12;;;;;;;4.18;3.60;;;20.70;99.90;;;;;;5016396;28;20046;-80
2023/06/11 01:28:39;;;;;;;4.68;4.10;;;20.70;99.90;;;;;;5006606;28;20081;-80
2023/06/11 01:31:14;;;;;;;3.70;3.25;;;20.70;99.90;;;;;;5006623;28;20105;-80
2023/06/11 01:33:45;;;;;;;4.45;3.95;;;20.70;99.90;;;;;;5019977;28;20053;-80
2023/06/11 01:36:11;;;;;;;;;;;20.70;99.90;;;;;;5011213;28;20038;-80
2023/06/11 01:38:42;;;;;;;3.88;3.40;;;20.70;99.90;;;;;;5010067;28;19949;-80
2023/06/11 01:41:11;;;;;;;4.32;3.92;;;20.70;99.90;;;;;;5013356;28;20052;-80
2023/06/11 01:43:38;;;;;;;4.38;3.65;;;20.70;99.90;;;;;;5013978;28;20473;-80
2023/06/11 01:46:05;;;;;;;6.03;3.40;;;20.70;99.90;;;;;;5015780;28;20399;-80
2023/06/11 01:48:32;;;;;;;4.07;3.70;;;20.60;99.90;;;;;;5013407;28;20054;-79
2023/06/11 01:51:00;;;;;;;4.57;4.00;;;20.60;99.90;;;;;;5011248;28;20046;-80
2023/06/11 01:53:26;;;;;;;3.55;3.25;;;20.60;99.90;;;;;;5009413;28;20073;-80
2023/06/11 01:55:56;;;;;;;3.72;2.80;;;20.50;99.90;;;;;;5018153;28;20078;-80
2023/06/11 01:58:23;;;;;;;4.57;3.47;;;20.60;99.90;;;;;;5007579;28;20049;-80
2023/06/11 02:00:50;;;;;;;5.78;3.50;;;20.50;99.90;;;;;;5005641;28;20053;-80
2023/06/11 02:03:17;;;;;;;4.93;3.38;;;20.50;99.90;;;;;;5010678;28;20072;-80
2023/06/11 02:05:44;;;;;;;4.70;3.65;;;20.50;99.90;;;;;;5006085;28;20054;-80
2023/06/11 02:08:11;;;;;;;4.70;3.78;;;20.50;99.90;;;;;;5008693;28;20046;-80
2023/06/11 02:10:37;;;;;;;4.00;3.60;;;20.50;99.90;;;;;;5007802;28;20042;-80
2023/06/11 02:13:04;;;;;;;3.78;3.47;;;20.50;99.90;;;;;;5010592;28;20042;-79
2023/06/11 02:15:31;;;;;;;4.03;3.63;;;20.50;99.90;;;;;;5010102;28;20132;-80
2023/06/11 02:17:57;;;;;;;4.40;3.80;;;20.50;99.90;;;;;;5011052;28;20045;-79
2023/06/11 02:20:24;;;;;;;4.65;4.25;;;20.50;99.90;;;;;;5005773;28;20041;-80
2023/06/11 02:22:51;;;;;;;7.35;4.90;;;20.50;99.90;;;;;;5004497;28;20046;-80
2023/06/11 02:25:18;;;;;;;4.18;3.78;;;20.50;99.90;;;;;;5004848;28;20100;-80
2023/06/11 02:27:45;;;;;;;4.50;3.78;;;20.50;99.90;;;;;;5006393;28;20564;-79
2023/06/11 02:30:12;;;;;;;5.72;3.95;;;20.50;99.90;;;;;;5005560;28;20390;-80
2023/06/11 02:32:40;;;;;;;4.35;3.80;;;20.40;99.90;;;;;;5003458;28;20461;-80
2023/06/11 02:35:07;;;;;;;4.07;3.67;;;20.40;99.90;;;;;;5014032;28;20123;-80
2023/06/11 02:37:34;;;;;;;4.03;3.63;;;20.40;99.90;;;;;;5009357;28;20053;-79
2023/06/11 02:40:01;;;;;;;5.85;3.92;;;20.40;99.90;;;;;;5023241;28;20054;-80
2023/06/11 02:42:28;;;;;;;4.20;3.63;;;20.30;99.90;;;;;;5009526;28;20041;-79
2023/06/11 02:44:55;;;;;;;3.75;3.45;;;20.30;99.90;;;;;;5007234;28;20073;-80
2023/06/11 02:47:21;;;;;;;4.72;3.55;;;20.30;99.90;;;;;;5013047;28;20100;-80
2023/06/11 02:49:48;;;;;;;4.07;3.67;;;20.30;99.90;;;;;;5023628;28;20057;-80
2023/06/11 02:52:15;;;;;;;4.60;3.60;;;20.30;99.90;;;;;;5003637;28;20498;-79
2023/06/11 02:54:41;;;;;;;4.80;4.10;;;20.30;99.90;;;;;;5000344;28;20046;-80
2023/06/11 02:57:08;;;;;;;3.55;3.25;;;20.30;99.90;;;;;;5007217;28;20043;-79
2023/06/11 02:59:35;;;;;;;3.88;3.55;;;20.20;99.90;;;;;;5008588;28;20038;-80
2023/06/11 03:02:02;;;;;;;4.60;4.13;;;20.20;99.90;;;;;;5003638;28;20050;-81
2023/06/11 03:04:28;;;;;;;6.25;3.78;;;20.20;99.90;;;;;;5009793;28;20065;-79
2023/06/11 03:06:55;;;;;;;4.97;3.90;;;20.20;99.90;;;;;;5009972;28;20136;-80
2023/06/11 03:09:24;;;;;;;4.25;3.85;;;20.20;99.90;;;;;;5007859;28;20045;-80
2023/06/11 03:11:51;;;;;;;4.38;3.85;;;20.10;99.90;;;;;;5009986;28;20489;-80
2023/06/11 03:14:20;;;;;;;6.63;4.10;;;20.10;99.90;;;;;;5005602;28;20054;-80
2023/06/11 03:16:47;;;;;;;4.15;3.60;;;20.10;99.90;;;;;;5014593;28;20552;-80
2023/06/11 03:19:14;;;;;;;4.60;4.20;;;20.10;99.90;;;;;;5009958;28;20137;-80
2023/06/11 03:21:41;;;;;;;7.68;4.32;;;20.10;99.90;;;;;;5003809;28;20499;-79
2023/06/11 03:24:08;;;;;;;4.18;3.75;;;20.00;99.90;;;;;;5000133;28;20054;-79
2023/06/11 03:26:34;;;;;;;4.97;3.78;;;20.00;99.90;;;;;;5005878;28;20084;-79
2023/06/11 03:29:02;;;;;;;4.00;3.30;;;20.00;99.90;;;;;;5005496;28;20054;-80
2023/06/11 03:31:28;;;;;;;6.50;4.10;;;20.00;99.90;;;;;;5003020;28;20317;-79
2023/06/11 03:33:55;;;;;;;4.60;4.10;;;19.90;99.90;;;;;;5025446;28;20112;-80
2023/06/11 03:36:22;;;;;;;4.50;3.95;;;19.90;99.90;;;;;;5025066;28;20093;-79
2023/06/11 03:38:49;;;;;;;4.38;3.97;;;19.90;99.90;;;;;;5008136;28;20414;-79
2023/06/11 03:41:16;;;;;;;4.75;4.20;;;19.90;99.90;;;;;;5009948;28;20041;-79
2023/06/11 03:43:43;;;;;;;5.57;3.90;;;19.90;99.90;;;;;;5005267;28;20081;-79
2023/06/11 03:46:10;;;;;;;6.72;4.10;;;19.80;99.90;;;;;;5009163;28;20050;-80
2023/06/11 03:48:36;;;;;;;6.40;4.28;;;19.80;99.90;;;;;;5008684;28;20050;-79
2023/06/11 03:51:03;;;;;;;6.13;4.03;;;19.80;99.90;;;;;;5004460;28;20050;-80
2023/06/11 03:53:30;;;;;;;6.32;4.30;;;19.80;99.90;;;;;;5008192;28;20042;-80
2023/06/11 03:55:57;;;;;;;6.38;3.80;;;19.80;99.90;;;;;;5001344;28;20043;-79
2023/06/11 03:58:23;;;;;;;5.88;4.63;;;19.80;99.90;;;;;;5005232;28;20065;-79
2023/06/11 04:00:51;;;;;;;4.35;3.92;;;19.80;99.90;;;;;;5003400;28;20045;-80
2023/06/11 04:03:17;;;;;;;5.45;3.85;;;19.70;99.90;;;;;;5009233;28;20484;-79
2023/06/11 04:05:44;;;;;;;6.97;4.40;;;19.70;99.90;;;;;;5009658;28;20042;-80
2023/06/11 04:08:11;;;;;;;5.35;4.43;;;19.70;99.90;;;;;;5011738;28;20078;-79
2023/06/11 04:10:38;;;;;;;5.07;4.38;;;19.70;99.90;;;;;;5008273;28;20148;-80
2023/06/11 04:13:05;;;;;;;4.75;4.07;;;19.70;99.90;;;;;;5009527;28;20462;-80
2023/06/11 04:15:32;;;;;;;4.47;4.07;;;19.70;99.90;;;;;;5003743;28;20042;-81
2023/06/11 04:17:58;;;;;;;5.43;4.50;;;19.70;99.90;;;;;;5007333;28;20046;-80
2023/06/11 04:20:25;;;;;;;4.60;4.20;;;19.70;99.90;;;;;;5004793;28;20057;-79
2023/06/11 04:22:53;;;;;;;4.25;3.85;;;19.80;99.90;;;;;;5000736;28;20446;-79
2023/06/11 04:25:20;;;;;;;4.30;3.45;;;19.80;99.90;;;;;;5002298;28;20434;-79
2023/06/11 04:27:47;;;;;;;4.68;4.07;;;19.80;99.90;;;;;;5009077;28;20081;-79
2023/06/11 04:30:14;;;;;;;4.85;4.38;;;19.80;99.90;;;;;;5005730;28;20084;-79
2023/06/11 04:32:41;;;;;;;4.22;3.83;;;19.80;99.90;;;;;;5006828;28;20050;-80
2023/06/11 04:35:09;;;;;;;4.95;4.45;;;19.80;99.90;;;;;;5010158;28;20057;-80
2023/06/11 04:37:41;;;;;;;5.70;4.78;;;19.90;99.90;;;;;;5008669;28;20062;-79
2023/06/11 04:40:10;;;;;;;4.47;4.07;;;19.90;99.90;;;;;;5008560;28;20050;-80
2023/06/11 04:42:41;;;;;;;5.90;4.63;;;19.90;99.90;;;;;;5007267;28;20046;-80
2023/06/11 04:45:10;;;;;;;5.13;4.25;;;19.90;99.90;;;;;;5002469;28;20050;-80
2023/06/11 04:47:38;;;;;;;4.28;3.88;;;20.00;99.90;;;;;;5011138;28;20066;-80
2023/06/11 04:50:06;;;;;;;6.00;4.20;;;20.10;99.90;;;;;;5003784;28;20137;-79
2023/06/11 04:52:38;;;;;;;5.15;4.25;;;20.20;99.90;;;;;;5000195;28;20140;-81
2023/06/11 04:55:09;;;;;;;4.55;3.95;;;20.30;99.90;;;;;;5000554;28;20054;-80
2023/06/11 04:57:38;;;;;;;5.18;3.88;;;20.40;99.90;;;;;;5009259;28;20101;-79
2023/06/11 05:00:08;;;;;;;4.68;3.65;;;20.50;99.90;;;;;;5005935;28;20051;-80
2023/06/11 05:02:44;;;;;;;5.32;3.90;;;20.70;99.90;;;;;;5006397;28;20485;-79
2023/06/11 05:05:11;;;;;;;3.90;3.50;;;20.80;99.90;;;;;;5010797;28;20459;-80
2023/06/11 05:07:39;;;;;;;3.85;3.55;;;21.00;99.90;;;;;;5009696;28;20046;-79
2023/06/11 05:10:06;;;;;;;4.70;4.20;;;21.20;99.90;;;;;;5009962;28;20046;-80
2023/06/11 05:12:33;;;;;;;6.07;3.70;;;21.30;99.90;;;;;;5006273;28;20053;-80
2023/06/11 05:15:00;;;;;;;5.85;3.78;;;21.50;99.90;;;;;;5003447;28;20426;-79
2023/06/11 05:17:27;;;;;;;7.05;4.88;;;21.60;99.90;;;;;;5015204;28;20065;-81
2023/06/11 05:19:54;;;;;;;4.93;4.32;;;21.80;99.90;;;;;;5002900;28;20070;-80
2023/06/11 05:22:21;;;;;;;6.13;4.40;;;21.90;99.90;;;;;;5003659;28;20046;-80
2023/06/11 05:24:48;;;;;;;4.25;3.70;;;22.00;99.90;;;;;;5000198;28;20046;-81
2023/06/11 05:27:15;;;;;;;4.40;3.30;;;22.10;99.90;;;;;;5011249;28;20077;-80
2023/06/11 05:29:42;;;;;;;3.85;3.42;;;22.20;99.90;;;;;;5021315;28;20053;-81
2023/06/11 05:32:14;;;;;;;5.80;4.18;;;22.30;99.90;;;;;;5006536;28;20046;-80
2023/06/11 05:34:41;;;;;;;6.57;3.60;;;22.40;99.90;;;;;;5009404;28;20050;-80
2023/06/11 05:37:08;;;;;;;5.32;3.80;;;22.50;99.90;;;;;;5008777;28;20108;-81
2023/06/11 05:39:35;;;;;;;4.88;4.30;;;22.50;99.90;;;;;;5009979;28;20042;-80
2023/06/11 05:42:02;;;;;;;9.55;4.63;;;22.60;99.90;;;;;;5007344;28;20050;-80
2023/06/11 05:44:28;;;;;;;6.35;4.72;;;22.60;99.90;;;;;;5003387;28;20051;-80
2023/06/11 05:46:55;;;;;;;4.82;4.43;;;22.60;99.90;;;;;;5005026;28;20457;-80
2023/06/11 05:49:22;;;;;;;5.68;5.07;;;22.60;99.90;;;;;;5005843;28;20110;-80
2023/06/11 05:51:49;;;;;;;8.68;5.05;;;22.50;99.90;;;;;;5001284;28;20050;-79
2023/06/11 05:54:15;;;;;;;6.40;5.55;;;22.50;99.90;;;;;;5002048;28;20050;-79
2023/06/11 05:56:43;;;;;;;8.13;5.53;;;22.50;99.90;;;;;;5007498;28;20050;-80
2023/06/11 05:59:10;;;;;;;6.82;6.10;;;22.50;99.90;;;;;;5008696;28;20414;-80
2023/06/11 06:01:37;;;;;;;10.25;7.03;;;22.50;99.90;;;;;;5006714;28;20082;-80
2023/06/11 06:04:04;;;;;;;11.32;6.22;;;22.50;99.90;;;;;;5008456;28;20467;-79
2023/06/11 06:06:32;;;;;;;7.72;5.60;;;22.50;99.90;;;;;;5005053;28;20055;-80
2023/06/11 06:08:59;;;;;;;6.72;5.95;;;22.40;99.90;;;;;;5013598;28;20073;-80
2023/06/11 06:11:26;;;;;;;6.60;5.90;;;22.40;99.90;;;;;;5013576;28;20054;-80
2023/06/11 06:13:53;;;;;;;6.60;5.95;;;22.40;99.90;;;;;;5006058;28;20050;-80
2023/06/11 06:16:20;;;;;;;9.32;6.78;;;22.40;99.90;;;;;;5003239;28;20050;-79
2023/06/11 06:18:46;;;;;;;7.38;6.63;;;22.40;99.90;;;;;;5006036;28;20042;-79
2023/06/11 06:21:13;;;;;;;6.30;5.68;;;22.40;99.90;;;;;;5008000;28;20426;-80
2023/06/11 06:23:40;;;;;;;7.57;6.78;;;22.40;99.90;;;;;;5004426;28;20042;-80
2023/06/11 06:26:07;;;;;;;7.22;5.85;;;22.40;99.90;;;;;;5014009;28;20054;-80
2023/06/11 06:28:35;;;;;;;6.32;5.72;;;22.50;99.90;;;;;;5012498;28;20103;-80
2023/06/11 06:31:02;;;;;;;12.05;6.88;;;22.50;99.90;;;;;;5010128;28;20054;-80
2023/06/11 06:33:33;;;;;;;9.48;6.07;;;22.50;99.90;;;;;;5011644;28;20046;-79
2023/06/11 06:36:02;;;;;;;6.10;5.50;;;22.50;99.90;;;;;;5009092;28;20129;-80
2023/06/11 06:38:31;;;;;;;6.90;6.20;;;22.50;99.90;;;;;;5014430;28;20050;-79
2023/06/11 06:40:57;;;;;;;6.22;5.63;;;22.50;99.90;;;;;;5007530;28;20682;-79
2023/06/11 06:43:24;;;;;;;6.82;6.13;;;22.50;99.90;;;;;;5007447;28;20061;-80
2023/06/11 06:45:51;;;;;;;8.75;6.57;;;22.50;99.90;;;;;;5002893;28;20046;-81
2023/06/11 06:48:17;;;;;;;6.70;5.70;;;22.60;99.90;;;;;;5006551;28;20051;-80
2023/06/11 06:50:44;;;;;;;6.57;5.97;;;22.60;99.90;;;;;;5006643;28;20429;-80
2023/06/11 06:53:11;;;;;;;15.68;6.18;;;22.60;99.90;;;;;;5006560;28;20477;-81
2023/06/11 06:55:38;;;;;;;6.50;5.90;;;22.60;99.90;;;;;;5009548;28;20128;-79
2023/06/11 06:58:05;;;;;;;7.32;6.57;;;22.60;99.90;;;;;;5012863;28;20070;-80
2023/06/11 07:00:32;;;;;;;7.40;6.53;;;22.60;99.90;;;;;;5010768;28;20069;-79
2023/06/11 07:02:58;;;;;;;10.77;6.32;;;22.60;99.90;;;;;;5011700;28;20042;-80
2023/06/11 07:05:25;;;;;;;11.13;7.13;;;22.70;99.90;;;;;;5009807;28;20077;-79
2023/06/11 07:07:52;;;;;;;8.93;7.85;;;22.70;99.90;;;;;;5009463;28;20081;-80
2023/06/11 07:10:19;;;;;;;7.70;6.85;;;22.60;99.90;;;;;;5014191;28;20120;-80
2023/06/11 07:12:46;;;;;;;6.93;6.30;;;22.60;99.90;;;;;;5012168;28;20057;-80
2023/06/11 07:15:13;;;;;;;7.53;6.45;;;22.60;99.90;;;;;;5003231;28;20121;-79
2023/06/11 07:17:39;;;;;;;8.80;6.93;;;22.60;99.90;;;;;;5001753;28;20042;-79
2023/06/11 07:20:09;;;;;;;7.82;6.97;;;22.60;99.90;;;;;;5006311;28;20089;-80
2023/06/11 07:22:37;;;;;;;9.63;7.25;;;22.70;99.90;;;;;;5006509;28;20130;-79
2023/06/11 07:25:06;;;;;;;7.88;7.07;;;22.70;99.90;;;;;;5009732;28;20046;-79
2023/06/11 07:27:33;;;;;;;7.83;6.63;;;22.70;99.90;;;;;;5010758;28;20049;-81
2023/06/11 07:30:00;;;;;;;9.18;8.35;;;22.70;99.90;;;;;;5010829;28;20053;-80
2023/06/11 07:32:26;;;;;;;7.28;6.57;;;22.80;99.90;;;;;;5010556;28;20109;-80
2023/06/11 07:34:53;;;;;;;7.90;6.68;;;22.80;99.90;;;;;;5008684;28;20046;-80
2023/06/11 07:37:20;;;;;;;10.05;7.53;;;22.80;99.90;;;;;;5009465;28;20054;-80
2023/06/11 07:39:47;;;;;;;7.70;6.90;;;22.80;99.90;;;;;;5013681;28;20085;-81
2023/06/11 07:42:14;;;;;;;7.32;6.10;;;22.90;99.90;;;;;;5007322;28;20438;-80
2023/06/11 07:44:41;;;;;;;8.65;7.60;;;22.90;99.90;;;;;;5002023;28;20097;-79
2023/06/11 07:47:08;;;;;;;9.88;8.65;;;22.90;99.90;;;;;;5000379;28;20092;-79
2023/06/11 07:49:35;;;;;;;10.27;9.20;;;23.00;99.90;;;;;;5008764;28;20041;-79
2023/06/11 07:52:02;;;;;;;11.70;8.10;;;23.00;99.90;;;;;;5006154;28;20054;-79
2023/06/11 07:54:29;;;;;;;10.02;8.98;;;23.00;99.90;;;;;;5007691;28;20096;-79
2023/06/11 07:56:56;;;;;;;9.98;8.90;;;23.00;99.90;;;;;;5025061;28;20057;-80
2023/06/11 07:59:23;;;;;;;12.52;9.15;;;23.00;99.90;;;;;;5009885;28;20047;-80
2023/06/11 08:01:50;;;;;;;9.23;7.57;;;23.10;99.90;;;;;;5011561;28;20053;-80
2023/06/11 08:04:16;;;;;;;9.90;8.27;;;23.10;99.90;;;;;;5008968;28;20042;-79
2023/06/11 08:06:43;;;;;;;10.48;8.10;;;23.10;99.90;;;;;;5004557;28;20089;-80
2023/06/11 08:09:10;;;;;;;8.95;7.78;;;23.10;99.90;;;;;;5007242;28;20108;-80
2023/06/11 08:11:37;;;;;;;11.77;9.15;;;23.20;99.90;;;;;;5006720;28;20042;-80
2023/06/11 08:14:04;;;;;;;10.00;8.73;;;23.20;99.90;;;;;;5001874;28;20465;-79
2023/06/11 08:16:31;;;;;;;10.18;8.98;;;23.30;99.90;;;;;;4999753;28;20078;-81
2023/06/11 08:18:58;;;;;;;11.25;8.52;;;23.30;99.90;;;;;;5008888;28;20049;-80
2023/06/11 08:21:25;;;;;;;9.40;8.30;;;23.30;99.90;;;;;;5009245;28;20064;-79
2023/06/11 08:23:52;;;;;;;13.02;8.77;;;23.30;99.90;;;;;;5005154;28;20065;-81
2023/06/11 08:26:19;;;;;;;12.75;10.05;;;23.30;99.90;;;;;;5012125;28;20073;-80
2023/06/11 08:28:47;;;;;;;11.93;10.73;;;23.30;99.90;;;;;;5007804;28;20045;-79
2023/06/11 08:31:14;;;;;;;12.40;9.02;;;23.30;99.90;;;;;;5012053;28;20061;-81
2023/06/11 08:33:41;;;;;;;11.57;9.95;;;23.40;99.90;;;;;;5009662;28;20445;-79
2023/06/11 08:36:08;;;;;;;11.82;10.05;;;23.40;99.90;;;;;;5004980;28;20058;-80
2023/06/11 08:38:35;;;;;;;13.05;9.13;;;23.40;99.90;;;;;;5015463;28;20045;-80
2023/06/11 08:41:05;;;;;;;12.77;9.60;;;23.40;99.90;;;;;;5005187;28;20050;-81
2023/06/11 08:43:31;;;;;;;10.00;7.97;;;23.40;99.90;;;;;;4997516;28;20042;-80
2023/06/11 08:45:58;;;;;;;11.80;8.73;;;23.40;99.90;;;;;;4997601;28;20141;-79
2023/06/11 08:48:29;;;;;;;10.85;8.93;;;23.50;99.90;;;;;;5004543;28;20051;-81
2023/06/11 08:50:58;;;;;;;13.63;10.13;;;23.50;99.90;;;;;;5005723;28;20046;-80
2023/06/11 08:53:27;;;;;;;11.55;9.27;;;23.60;99.90;;;;;;5003281;28;20101;-80
2023/06/11 08:55:54;;;;;;;11.20;9.15;;;23.60;99.90;;;;;;5008492;28;20047;-81
2023/06/11 08:58:22;;;;;;;10.82;6.65;;;23.60;99.90;;;;;;5007737;28;20101;-80
2023/06/11 09:00:49;;;;;;;7.25;6.47;;;23.70;99.90;;;;;;5010873;28;20112;-81
2023/06/11 09:03:17;;;;;;;7.95;7.13;;;23.70;99.90;;;;;;5009371;28;20112;-80
2023/06/11 09:05:46;;;;;;;9.93;7.57;;;23.70;99.90;;;;;;5007899;28;20053;-80
2023/06/11 09:08:12;;;;;;;7.22;5.82;;;23.70;99.90;;;;;;5001620;28;20082;-80
2023/06/11 09:10:51;;;;;;;10.95;7.85;;;23.80;99.90;;;;;;5010680;28;20054;-80
2023/06/11 09:13:19;;;;;;;8.18;7.38;;;23.80;99.90;;;;;;5003818;28;20466;-80
2023/06/11 09:15:49;;;;;;;8.48;7.47;;;23.90;99.90;;;;;;5002053;28;20559;-81
2023/06/11 09:18:22;;;;;;;12.68;6.70;;;23.90;99.90;;;;;;5007268;28;20508;-80
2023/06/11 09:20:51;;;;;;;7.10;5.78;;;24.00;99.90;;;;;;5008077;28;20042;-81
2023/06/11 09:23:33;;;;;;;8.55;7.75;;;24.00;99.90;;;;;;5007803;28;20046;-79
2023/06/11 09:26:01;;;;;;;9.00;6.90;;;24.10;99.90;;;;;;5010346;28;20578;-82
2023/06/11 09:28:32;;;;;;;7.15;6.45;;;24.10;99.90;;;;;;5007083;28;20085;-78
2023/06/11 09:31:01;;;;;;;7.95;5.47;;;24.20;99.90;;;;;;5012118;28;20050;-81
2023/06/11 09:33:29;;;;;;;8.05;5.80;;;24.30;99.90;;;;;;5009029;28;20069;-81
2023/06/11 09:35:56;;;;;;;6.65;5.80;;;24.30;99.90;;;;;;5003941;28;20046;-80
2023/06/11 09:38:22;;;;;;;9.85;5.50;;;24.30;99.90;;;;;;5000440;28;20110;-81
2023/06/11 09:40:51;;;;;;;8.65;6.55;;;24.40;99.90;;;;;;5006473;28;20120;-79
2023/06/11 09:43:22;;;;;;;7.85;7.07;;;24.40;99.90;;;;;;5008591;28;20046;-81
2023/06/11 09:45:52;;;;;;;7.75;5.60;;;24.50;99.90;;;;;;5007899;28;20065;-80
2023/06/11 09:48:20;;;;;;;7.78;5.43;;;24.50;99.90;;;;;;5016527;28;20108;-79
2023/06/11 09:50:49;;;;;;;6.93;6.07;;;24.50;99.90;;;;;;5012035;28;20084;-80
2023/06/11 09:53:19;;;;;;;7.63;4.65;;;24.60;99.90;;;;;;5010169;28;20109;-80
2023/06/11 09:55:50;;;;;;;5.20;4.70;;;24.60;99.90;;;;;;5011263;28;20096;-80
2023/06/11 09:58:38;;;;;;;5.22;4.72;;;24.70;99.90;;;;;;5011900;28;20080;-79
2023/06/11 10:01:06;;;;;;;5.50;5.00;;;24.70;99.90;;;;;;5016463;28;20078;-80
2023/06/11 10:03:33;;;;;;;7.78;5.15;;;24.80;99.90;;;;;;5011638;28;20042;-80
2023/06/11 10:06:06;;;;;;;5.53;4.90;;;24.80;99.90;;;;;;5005453;28;20049;-79
2023/06/11 10:08:35;;;;;;;4.90;4.47;;;24.90;99.90;;;;;;5002013;28;20464;-79
2023/06/11 10:11:04;;;;;;;7.40;4.95;;;24.90;99.90;;;;;;5008981;28;20061;-80
2023/06/11 10:13:34;;;;;;;6.95;5.07;;;25.00;99.90;;;;;;5007924;28;20077;-80
2023/06/11 10:16:03;;;;;;;5.95;4.70;;;25.00;99.90;;;;;;5004551;28;20078;-80
2023/06/11 10:18:30;;;;;;;6.60;4.47;;;25.00;99.90;;;;;;5013778;28;20046;-80
2023/06/11 10:21:02;;;;;;;5.57;4.80;;;25.10;99.90;;;;;;5007647;28;20039;-79
2023/06/11 10:23:42;;;;;;;4.30;3.90;;;25.20;99.90;;;;;;5011023;28;20417;-80
2023/06/11 10:26:09;;;;;;;5.03;4.50;;;25.20;99.90;;;;;;5011890;28;20047;-79
2023/06/11 10:28:51;;;;;;;6.90;4.75;;;25.30;99.90;;;;;;5006965;28;20045;-79
2023/06/11 10:31:45;;;;;;;5.35;4.60;;;25.30;99.90;;;;;;5013526;28;20080;-80
2023/06/11 10:34:14;;;;;;;5.22;4.35;;;25.30;99.90;;;;;;5007655;28;20085;-80
2023/06/11 10:36:41;;;;;;;6.25;4.53;;;25.40;99.90;;;;;;5004819;28;20058;-80
2023/06/11 10:39:22;;;;;;;5.32;4.38;;;25.40;99.90;;;;;;5004282;28;20057;-79
2023/06/11 10:42:00;;;;;;;5.20;4.47;;;25.50;99.90;;;;;;5007977;28;20053;-80
2023/06/11 10:44:29;;;;;;;6.10;4.45;;;25.50;99.90;;;;;;5008130;28;20066;-80
2023/06/11 10:47:00;;;;;;;4.40;4.03;;;25.60;99.90;;;;;;5007344;28;20069;-81
2023/06/11 10:49:28;;;;;;;5.20;4.55;;;25.60;99.90;;;;;;5012457;28;20054;-80
2023/06/11 10:51:55;;;;;;;4.63;4.22;;;25.60;99.90;;;;;;5012332;28;20054;-80
2023/06/11 10:54:33;;;;;;;5.53;4.07;;;25.60;99.90;;;;;;5011832;28;20078;-81
2023/06/11 10:57:03;;;;;;;6.28;4.22;;;25.70;99.90;;;;;;5011869;28;20051;-80
2023/06/11 10:59:31;;;;;;;4.22;3.83;;;25.70;99.90;;;;;;5007019;28;20042;-80
2023/06/11 11:01:58;;;;;;;5.35;4.25;;;25.70;99.90;;;;;;5013590;28;20134;-80
2023/06/11 11:04:26;;;;;;;4.90;4.20;;;25.70;99.90;;;;;;5008410;28;20050;-80
2023/06/11 11:07:08;;;;;;;4.10;3.70;;;25.80;99.90;;;;;;5002183;28;20050;-79
2023/06/11 11:09:35;;;;;;;5.32;3.95;;;25.80;99.90;;;;;;5004033;28;20050;-79
2023/06/11 11:12:03;;;;;;;5.05;3.55;;;25.80;99.90;;;;;;5012240;28;20061;-80
2023/06/11 11:14:30;;;;;;;5.28;4.60;;;25.90;99.90;;;;;;5008442;28;20050;-80
2023/06/11 11:17:00;;;;;;;5.25;4.13;;;26.10;99.90;;;;;;5008218;28;20073;-81
2023/06/11 11:19:30;;;;;;;4.30;3.88;;;26.10;99.90;;;;;;5011485;28;20042;-79
2023/06/11 11:21:56;;;;;;;5.28;3.92;;;26.20;99.90;;;;;;5010430;28;20056;-79
2023/06/11 11:24:23;;;;;;;4.70;4.28;;;26.20;99.90;;;;;;5010468;28;20046;-79
2023/06/11 11:26:50;;;;;;;5.53;3.90;;;26.30;99.90;;;;;;5009031;28;20048;-81
2023/06/11 11:29:17;;;;;;;4.22;3.83;;;26.30;99.90;;;;;;5003912;28;20109;-80
2023/06/11 11:31:45;;;;;;;4.40;4.00;;;26.30;99.90;;;;;;5016301;28;20128;-80
2023/06/11 11:34:12;;;;;;;4.45;4.05;;;26.30;99.90;;;;;;5005434;28;20050;-81
2023/06/11 11:36:39;;;;;;;6.43;4.60;;;26.30;99.90;;;;;;5007770;28;20072;-80
2023/06/11 11:39:13;;;;;;;5.45;3.83;;;26.30;99.90;;;;;;5000662;28;20050;-81
2023/06/11 11:41:50;;;;;;;4.18;3.80;;;26.30;99.90;;;;;;5010567;28;20041;-79
2023/06/11 11:44:17;;;;;;;6.43;4.00;;;26.30;99.90;;;;;;5006309;28;20096;-80
2023/06/11 11:46:44;;;;;;;7.47;3.67;;;26.40;99.90;;;;;;5008164;28;20056;-80
2023/06/11 11:49:12;;;;;;;4.30;3.95;;;26.40;99.90;;;;;;5010574;28;20459;-79
2023/06/11 11:51:51;;;;;;;6.95;4.15;;;26.50;99.90;;;;;;5012896;28;20046;-79
2023/06/11 11:54:17;;;;;;;4.25;3.65;;;26.50;99.90;;;;;;5011243;28;20060;-80
2023/06/11 11:56:44;;;;;;;5.60;3.63;;;26.70;99.90;;;;;;5009773;28;20049;-80
2023/06/11 11:59:21;;;;;;;3.90;3.60;;;26.70;99.90;;;;;;5003960;28;20046;-80
2023/06/11 12:01:58;;;;;;;3.78;3.47;;;26.80;99.90;;;;;;5014132;28;20065;-80
2023/06/11 12:04:35;;;;;;;4.05;3.70;;;26.80;99.90;;;;;;5020713;28;20046;-80
2023/06/11 12:07:03;;;;;;;6.28;3.90;;;26.90;99.90;;;;;;5004537;28;20076;-79
2023/06/11 12:09:30;;;;;;;4.88;3.40;;;26.90;99.90;;;;;;5008281;28;20061;-80
2023/06/11 12:11:57;;;;;;;4.00;3.70;;;26.90;99.90;;;;;;5012489;28;20394;-81
2023/06/11 12:14:31;;;;;;;4.72;3.85;;;26.90;99.90;;;;;;5008862;28;20506;-81
2023/06/11 12:16:58;;;;;;;3.38;3.08;;;26.90;99.90;;;;;;5005991;28;20452;-80
2023/06/11 12:19:25;;;;;;;4.28;3.63;;;27.00;99.90;;;;;;5010963;28;20057;-80
2023/06/11 12:21:52;;;;;;;4.05;3.30;;;27.00;99.90;;;;;;5010811;28;20042;-80
2023/06/11 12:24:19;;;;;;;4.72;3.08;;;27.00;99.90;;;;;;5008543;28;20050;-80
2023/06/11 12:26:50;;;;;;;4.35;3.08;;;27.10;99.90;;;;;;5008465;28;20499;-80
2023/06/11 12:29:18;;;;;;;3.28;2.78;;;27.10;99.90;;;;;;5006178;28;20640;-80
2023/06/11 12:31:48;;;;;;;3.88;3.58;;;27.10;99.90;;;;;;5010079;28;20104;-80
2023/06/11 12:34:15;;;;;;;4.05;3.00;;;27.10;99.90;;;;;;5013484;28;20046;-80
2023/06/11 12:36:46;;;;;;;6.25;3.28;;;27.10;99.90;;;;;;5001110;28;20446;-79
2023/06/11 12:39:14;;;;;;;4.78;3.30;;;27.20;99.90;;;;;;5010187;28;20049;-80
2023/06/11 12:41:40;;;;;;;3.95;3.00;;;27.30;99.90;;;;;;5015865;28;20073;-80
2023/06/11 12:44:07;;;;;;;5.05;3.33;;;27.30;99.90;;;;;;5013419;28;20362;-79
2023/06/11 12:46:36;;;;;;;3.10;2.80;;;27.40;99.90;;;;;;5010858;28;20054;-80
2023/06/11 12:49:03;;;;;;;3.35;3.05;;;27.40;99.90;;;;;;5004404;28;20054;-79
2023/06/11 12:51:30;;;;;;;3.65;3.35;;;27.50;99.90;;;;;;5004834;28;20119;-79
2023/06/11 12:53:56;;;;;;;6.43;2.90;;;27.50;99.90;;;;;;5007277;28;20056;-80